Terminal Aerodrome Forecast
Issued by NWS

Home | Current Version | Previous Version | Text Only | Print | Product List | Glossary On
Versions: 1 2 3 4 5 6 7 8 9 10 11 12 13 14 15 16 17 18 19
000
FTUS46 KMFR 170532 AAB
TAFOTH
TAF AMD
KOTH 170532Z 1706/1806 35010KT P6SM FEW010
     FM170700 36004KT 3SM BR OVC005
     FM171600 36008KT P6SM SCT008
     FM171900 36023G32KT P6SM SKC
     FM180400 36012G20KT P6SM SKC=

USA.gov is the U.S. government's official web portal to all federal, state and local government web resources and services.